sensor_id;sensor_type;location;lat;lon;timestamp;temperature;humidity
38514;DHT22;24282;48.400;10.808;2023-05-13T00:00:11;11.40;83.70
38514;DHT22;24282;48.400;10.808;2023-05-13T00:02:37;11.40;83.60
38514;DHT22;24282;48.400;10.808;2023-05-13T00:05:04;11.40;83.60
38514;DHT22;24282;48.400;10.808;2023-05-13T00:07:30;11.40;83.30
38514;DHT22;24282;48.400;10.808;2023-05-13T00:09:55;11.40;83.30
38514;DHT22;24282;48.400;10.808;2023-05-13T00:12:21;11.30;83.20
38514;DHT22;24282;48.400;10.808;2023-05-13T00:14:47;11.30;83.40
38514;DHT22;24282;48.400;10.808;2023-05-13T00:17:13;11.30;83.50
38514;DHT22;24282;48.400;10.808;2023-05-13T00:19:39;11.30;83.40
38514;DHT22;24282;48.400;10.808;2023-05-13T00:22:05;11.30;83.40
38514;DHT22;24282;48.400;10.808;2023-05-13T00:24:31;11.20;83.40
38514;DHT22;24282;48.400;10.808;2023-05-13T00:26:57;11.20;83.50
38514;DHT22;24282;48.400;10.808;2023-05-13T00:29:23;11.20;83.60
38514;DHT22;24282;48.400;10.808;2023-05-13T00:31:49;11.20;83.50
38514;DHT22;24282;48.400;10.808;2023-05-13T00:34:15;11.20;83.50
38514;DHT22;24282;48.400;10.808;2023-05-13T00:36:43;11.20;83.40
38514;DHT22;24282;48.400;10.808;2023-05-13T00:39:09;11.20;83.60
38514;DHT22;24282;48.400;10.808;2023-05-13T00:41:36;11.10;83.70
38514;DHT22;24282;48.400;10.808;2023-05-13T00:44:02;11.20;83.50
38514;DHT22;24282;48.400;10.808;2023-05-13T00:46:31;11.10;83.40
38514;DHT22;24282;48.400;10.808;2023-05-13T00:48:58;11.10;83.40
38514;DHT22;24282;48.400;10.808;2023-05-13T00:51:25;11.10;83.50
38514;DHT22;24282;48.400;10.808;2023-05-13T00:53:51;11.10;83.70
38514;DHT22;24282;48.400;10.808;2023-05-13T00:56:18;11.10;83.70
38514;DHT22;24282;48.400;10.808;2023-05-13T00:58:46;11.00;83.70
38514;DHT22;24282;48.400;10.808;2023-05-13T01:01:20;11.10;83.50
38514;DHT22;24282;48.400;10.808;2023-05-13T01:03:55;11.00;83.60
38514;DHT22;24282;48.400;10.808;2023-05-13T01:06:39;11.00;83.70
38514;DHT22;24282;48.400;10.808;2023-05-13T01:09:23;11.00;83.70
38514;DHT22;24282;48.400;10.808;2023-05-13T01:11:54;11.00;83.80
38514;DHT22;24282;48.400;10.808;2023-05-13T01:14:26;11.00;83.70
38514;DHT22;24282;48.400;10.808;2023-05-13T01:17:08;11.00;83.70
38514;DHT22;24282;48.400;10.808;2023-05-13T01:19:48;11.00;83.90
38514;DHT22;24282;48.400;10.808;2023-05-13T01:22:14;10.90;83.70
38514;DHT22;24282;48.400;10.808;2023-05-13T01:24:41;10.90;83.70
38514;DHT22;24282;48.400;10.808;2023-05-13T01:27:06;10.90;83.80
38514;DHT22;24282;48.400;10.808;2023-05-13T01:29:32;10.90;83.90
38514;DHT22;24282;48.400;10.808;2023-05-13T01:32:00;10.90;83.90
38514;DHT22;24282;48.400;10.808;2023-05-13T01:34:27;10.90;84.00
38514;DHT22;24282;48.400;10.808;2023-05-13T01:36:54;10.90;83.90
38514;DHT22;24282;48.400;10.808;2023-05-13T01:39:21;10.90;83.90
38514;DHT22;24282;48.400;10.808;2023-05-13T01:41:51;10.90;83.90
38514;DHT22;24282;48.400;10.808;2023-05-13T01:44:17;10.90;83.90
38514;DHT22;24282;48.400;10.808;2023-05-13T01:46:43;10.90;83.90
38514;DHT22;24282;48.400;10.808;2023-05-13T01:49:10;10.90;83.90
38514;DHT22;24282;48.400;10.808;2023-05-13T01:51:36;10.90;84.10
38514;DHT22;24282;48.400;10.808;2023-05-13T01:54:03;10.90;84.10
38514;DHT22;24282;48.400;10.808;2023-05-13T01:56:30;10.90;84.10
38514;DHT22;24282;48.400;10.808;2023-05-13T01:58:57;10.90;84.10
38514;DHT22;24282;48.400;10.808;2023-05-13T02:01:23;10.90;83.90
38514;DHT22;24282;48.400;10.808;2023-05-13T02:03:49;10.90;83.60
38514;DHT22;24282;48.400;10.808;2023-05-13T02:06:15;10.90;83.60
38514;DHT22;24282;48.400;10.808;2023-05-13T02:08:41;10.90;83.80
38514;DHT22;24282;48.400;10.808;2023-05-13T02:11:07;10.90;83.90
38514;DHT22;24282;48.400;10.808;2023-05-13T02:13:33;10.90;84.00
38514;DHT22;24282;48.400;10.808;2023-05-13T02:15:59;10.90;83.90
38514;DHT22;24282;48.400;10.808;2023-05-13T02:18:25;10.90;84.00
38514;DHT22;24282;48.400;10.808;2023-05-13T02:20:51;10.90;83.70
38514;DHT22;24282;48.400;10.808;2023-05-13T02:23:16;10.90;83.50
38514;DHT22;24282;48.400;10.808;2023-05-13T02:25:43;10.90;83.70
38514;DHT22;24282;48.400;10.808;2023-05-13T02:28:08;10.90;83.80
38514;DHT22;24282;48.400;10.808;2023-05-13T02:30:35;10.90;83.70
38514;DHT22;24282;48.400;10.808;2023-05-13T02:33:01;10.90;83.70
38514;DHT22;24282;48.400;10.808;2023-05-13T02:35:27;10.90;83.70
38514;DHT22;24282;48.400;10.808;2023-05-13T02:37:57;10.90;83.50
38514;DHT22;24282;48.400;10.808;2023-05-13T02:40:23;10.90;83.40
38514;DHT22;24282;48.400;10.808;2023-05-13T02:42:49;10.90;83.40
38514;DHT22;24282;48.400;10.808;2023-05-13T02:45:19;10.90;83.50
38514;DHT22;24282;48.400;10.808;2023-05-13T02:47:50;10.80;83.60
38514;DHT22;24282;48.400;10.808;2023-05-13T02:50:16;10.90;83.60
38514;DHT22;24282;48.400;10.808;2023-05-13T02:52:42;10.80;83.60
38514;DHT22;24282;48.400;10.808;2023-05-13T02:55:08;10.90;83.40
38514;DHT22;24282;48.400;10.808;2023-05-13T02:57:36;10.90;83.10
38514;DHT22;24282;48.400;10.808;2023-05-13T03:00:06;10.90;82.90
38514;DHT22;24282;48.400;10.808;2023-05-13T03:02:33;10.90;82.90
38514;DHT22;24282;48.400;10.808;2023-05-13T03:04:59;10.90;83.10
38514;DHT22;24282;48.400;10.808;2023-05-13T03:07:25;10.90;83.20
38514;DHT22;24282;48.400;10.808;2023-05-13T03:09:50;10.90;83.10
38514;DHT22;24282;48.400;10.808;2023-05-13T03:12:16;10.90;83.00
38514;DHT22;24282;48.400;10.808;2023-05-13T03:14:42;10.90;83.10
38514;DHT22;24282;48.400;10.808;2023-05-13T03:17:09;10.90;83.20
38514;DHT22;24282;48.400;10.808;2023-05-13T03:19:37;10.90;83.00
38514;DHT22;24282;48.400;10.808;2023-05-13T03:22:04;10.90;83.00
38514;DHT22;24282;48.400;10.808;2023-05-13T03:24:31;10.90;83.00
38514;DHT22;24282;48.400;10.808;2023-05-13T03:26:57;10.90;83.20
38514;DHT22;24282;48.400;10.808;2023-05-13T03:29:23;10.90;83.20
38514;DHT22;24282;48.400;10.808;2023-05-13T03:31:52;10.90;83.20
38514;DHT22;24282;48.400;10.808;2023-05-13T03:34:22;10.90;83.40
38514;DHT22;24282;48.400;10.808;2023-05-13T03:36:47;10.80;83.20
38514;DHT22;24282;48.400;10.808;2023-05-13T03:39:13;10.80;83.30
38514;DHT22;24282;48.400;10.808;2023-05-13T03:41:39;10.80;83.50
38514;DHT22;24282;48.400;10.808;2023-05-13T03:44:05;10.80;83.70
38514;DHT22;24282;48.400;10.808;2023-05-13T03:46:31;10.80;83.60
38514;DHT22;24282;48.400;10.808;2023-05-13T03:48:58;10.80;83.50
38514;DHT22;24282;48.400;10.808;2023-05-13T03:51:27;10.80;83.50
38514;DHT22;24282;48.400;10.808;2023-05-13T03:53:53;10.80;83.60
38514;DHT22;24282;48.400;10.808;2023-05-13T03:56:18;10.80;83.60
38514;DHT22;24282;48.400;10.808;2023-05-13T03:58:44;10.80;83.60
38514;DHT22;24282;48.400;10.808;2023-05-13T04:01:10;10.80;83.60
38514;DHT22;24282;48.400;10.808;2023-05-13T04:03:36;10.80;83.70
38514;DHT22;24282;48.400;10.808;2023-05-13T04:06:01;10.80;84.00
38514;DHT22;24282;48.400;10.808;2023-05-13T04:08:27;10.80;83.80
38514;DHT22;24282;48.400;10.808;2023-05-13T04:10:53;10.80;83.50
38514;DHT22;24282;48.400;10.808;2023-05-13T04:13:21;10.80;83.70
38514;DHT22;24282;48.400;10.808;2023-05-13T04:15:47;10.80;83.60
38514;DHT22;24282;48.400;10.808;2023-05-13T04:18:12;10.80;83.20
38514;DHT22;24282;48.400;10.808;2023-05-13T04:20:38;10.80;83.30
38514;DHT22;24282;48.400;10.808;2023-05-13T04:23:05;10.80;83.30
38514;DHT22;24282;48.400;10.808;2023-05-13T04:25:30;10.80;83.40
38514;DHT22;24282;48.400;10.808;2023-05-13T04:27:56;10.70;83.50
38514;DHT22;24282;48.400;10.808;2023-05-13T04:30:28;10.80;83.70
38514;DHT22;24282;48.400;10.808;2023-05-13T04:32:54;10.80;83.90
38514;DHT22;24282;48.400;10.808;2023-05-13T04:35:20;10.80;83.70
38514;DHT22;24282;48.400;10.808;2023-05-13T04:37:50;10.80;83.70
38514;DHT22;24282;48.400;10.808;2023-05-13T04:40:17;10.80;83.60
38514;DHT22;24282;48.400;10.808;2023-05-13T04:42:44;10.80;83.50
38514;DHT22;24282;48.400;10.808;2023-05-13T04:45:10;10.80;83.60
38514;DHT22;24282;48.400;10.808;2023-05-13T04:47:36;10.80;83.30
38514;DHT22;24282;48.400;10.808;2023-05-13T04:50:02;10.80;83.60
38514;DHT22;24282;48.400;10.808;2023-05-13T04:52:29;10.80;83.80
38514;DHT22;24282;48.400;10.808;2023-05-13T04:54:55;10.80;83.80
38514;DHT22;24282;48.400;10.808;2023-05-13T04:57:21;10.80;84.10
38514;DHT22;24282;48.400;10.808;2023-05-13T04:59:46;10.80;84.10
38514;DHT22;24282;48.400;10.808;2023-05-13T05:02:13;10.80;83.90
38514;DHT22;24282;48.400;10.808;2023-05-13T05:04:39;10.80;84.00
38514;DHT22;24282;48.400;10.808;2023-05-13T05:07:10;10.80;83.90
38514;DHT22;24282;48.400;10.808;2023-05-13T05:09:36;10.80;83.90
38514;DHT22;24282;48.400;10.808;2023-05-13T05:12:02;10.80;83.90
38514;DHT22;24282;48.400;10.808;2023-05-13T05:14:31;10.80;84.00
38514;DHT22;24282;48.400;10.808;2023-05-13T05:16:56;10.90;83.70
38514;DHT22;24282;48.400;10.808;2023-05-13T05:19:23;10.80;83.50
38514;DHT22;24282;48.400;10.808;2023-05-13T05:21:52;10.80;83.70
38514;DHT22;24282;48.400;10.808;2023-05-13T05:24:18;10.90;83.80
38514;DHT22;24282;48.400;10.808;2023-05-13T05:26:44;10.90;83.80
38514;DHT22;24282;48.400;10.808;2023-05-13T05:29:10;10.80;83.60
38514;DHT22;24282;48.400;10.808;2023-05-13T05:31:36;10.90;83.50
38514;DHT22;24282;48.400;10.808;2023-05-13T05:34:02;10.90;83.60
38514;DHT22;24282;48.400;10.808;2023-05-13T05:36:28;10.90;83.60
38514;DHT22;24282;48.400;10.808;2023-05-13T05:38:54;10.90;83.70
38514;DHT22;24282;48.400;10.808;2023-05-13T05:41:22;10.90;83.50
38514;DHT22;24282;48.400;10.808;2023-05-13T05:43:48;10.90;83.60
38514;DHT22;24282;48.400;10.808;2023-05-13T05:46:14;10.90;83.70
38514;DHT22;24282;48.400;10.808;2023-05-13T05:48:40;10.90;83.60
38514;DHT22;24282;48.400;10.808;2023-05-13T05:51:06;10.90;83.50
38514;DHT22;24282;48.400;10.808;2023-05-13T05:53:35;10.90;83.30
38514;DHT22;24282;48.400;10.808;2023-05-13T05:56:03;10.90;83.30
38514;DHT22;24282;48.400;10.808;2023-05-13T05:58:29;11.00;83.10
38514;DHT22;24282;48.400;10.808;2023-05-13T06:00:55;11.00;82.80
38514;DHT22;24282;48.400;10.808;2023-05-13T06:03:23;11.00;82.80
38514;DHT22;24282;48.400;10.808;2023-05-13T06:05:48;11.00;82.90
38514;DHT22;24282;48.400;10.808;2023-05-13T06:08:14;10.90;83.20
38514;DHT22;24282;48.400;10.808;2023-05-13T06:10:40;10.90;83.20
38514;DHT22;24282;48.400;10.808;2023-05-13T06:13:06;11.00;83.10
38514;DHT22;24282;48.400;10.808;2023-05-13T06:15:33;10.90;83.20
38514;DHT22;24282;48.400;10.808;2023-05-13T06:17:59;10.90;83.30
38514;DHT22;24282;48.400;10.808;2023-05-13T06:20:26;10.90;83.30
38514;DHT22;24282;48.400;10.808;2023-05-13T06:22:51;11.00;83.30
38514;DHT22;24282;48.400;10.808;2023-05-13T06:25:17;11.00;83.30
38514;DHT22;24282;48.400;10.808;2023-05-13T06:27:43;10.90;83.20
38514;DHT22;24282;48.400;10.808;2023-05-13T06:30:10;10.90;83.30
38514;DHT22;24282;48.400;10.808;2023-05-13T06:32:40;11.00;83.40
38514;DHT22;24282;48.400;10.808;2023-05-13T06:35:06;11.00;83.30
38514;DHT22;24282;48.400;10.808;2023-05-13T06:37:32;11.00;83.50
38514;DHT22;24282;48.400;10.808;2023-05-13T06:39:59;11.00;83.50
38514;DHT22;24282;48.400;10.808;2023-05-13T06:42:24;10.90;83.70
38514;DHT22;24282;48.400;10.808;2023-05-13T06:44:57;10.90;83.60
38514;DHT22;24282;48.400;10.808;2023-05-13T06:47:26;10.90;83.80
38514;DHT22;24282;48.400;10.808;2023-05-13T06:49:52;11.00;83.90
38514;DHT22;24282;48.400;10.808;2023-05-13T06:52:18;11.00;83.70
38514;DHT22;24282;48.400;10.808;2023-05-13T06:54:43;10.90;83.70
38514;DHT22;24282;48.400;10.808;2023-05-13T06:57:09;11.00;83.60
38514;DHT22;24282;48.400;10.808;2023-05-13T06:59:35;11.00;83.70
38514;DHT22;24282;48.400;10.808;2023-05-13T07:02:00;11.00;83.60
38514;DHT22;24282;48.400;10.808;2023-05-13T07:04:26;11.00;83.40
38514;DHT22;24282;48.400;10.808;2023-05-13T07:06:55;11.00;83.40
38514;DHT22;24282;48.400;10.808;2023-05-13T07:09:21;11.00;83.90
38514;DHT22;24282;48.400;10.808;2023-05-13T07:11:46;11.00;83.90
38514;DHT22;24282;48.400;10.808;2023-05-13T07:14:12;11.00;83.90
38514;DHT22;24282;48.400;10.808;2023-05-13T07:16:38;11.00;84.00
38514;DHT22;24282;48.400;10.808;2023-05-13T07:19:04;11.00;84.00
38514;DHT22;24282;48.400;10.808;2023-05-13T07:21:29;11.00;83.70
38514;DHT22;24282;48.400;10.808;2023-05-13T07:23:55;11.00;84.00
38514;DHT22;24282;48.400;10.808;2023-05-13T07:26:21;11.10;83.80
38514;DHT22;24282;48.400;10.808;2023-05-13T07:28:47;11.10;83.70
38514;DHT22;24282;48.400;10.808;2023-05-13T07:31:12;11.00;83.30
38514;DHT22;24282;48.400;10.808;2023-05-13T07:33:38;11.10;83.30
38514;DHT22;24282;48.400;10.808;2023-05-13T07:36:04;11.10;83.10
38514;DHT22;24282;48.400;10.808;2023-05-13T07:38:30;11.10;83.00
38514;DHT22;24282;48.400;10.808;2023-05-13T07:40:56;11.00;83.20
38514;DHT22;24282;48.400;10.808;2023-05-13T07:43:22;11.00;83.10
38514;DHT22;24282;48.400;10.808;2023-05-13T07:45:51;11.10;83.10
38514;DHT22;24282;48.400;10.808;2023-05-13T07:48:17;11.10;82.90
38514;DHT22;24282;48.400;10.808;2023-05-13T07:50:46;11.10;82.80
38514;DHT22;24282;48.400;10.808;2023-05-13T07:53:12;11.10;82.90
38514;DHT22;24282;48.400;10.808;2023-05-13T07:55:38;11.10;83.10
38514;DHT22;24282;48.400;10.808;2023-05-13T07:58:03;11.10;82.90
38514;DHT22;24282;48.400;10.808;2023-05-13T08:00:30;11.20;82.90
38514;DHT22;24282;48.400;10.808;2023-05-13T08:02:56;11.20;83.00
38514;DHT22;24282;48.400;10.808;2023-05-13T08:05:22;11.20;82.70
38514;DHT22;24282;48.400;10.808;2023-05-13T08:07:48;11.20;82.60
38514;DHT22;24282;48.400;10.808;2023-05-13T08:10:13;11.20;82.80
38514;DHT22;24282;48.400;10.808;2023-05-13T08:12:39;11.30;83.00
38514;DHT22;24282;48.400;10.808;2023-05-13T08:15:05;11.30;82.90
38514;DHT22;24282;48.400;10.808;2023-05-13T08:17:32;11.30;82.80
38514;DHT22;24282;48.400;10.808;2023-05-13T08:19:58;11.30;82.80
38514;DHT22;24282;48.400;10.808;2023-05-13T08:22:25;11.30;82.50
38514;DHT22;24282;48.400;10.808;2023-05-13T08:24:51;11.30;82.50
38514;DHT22;24282;48.400;10.808;2023-05-13T08:27:16;11.40;82.50
38514;DHT22;24282;48.400;10.808;2023-05-13T08:29:42;11.30;82.60
38514;DHT22;24282;48.400;10.808;2023-05-13T08:32:08;11.40;82.60
38514;DHT22;24282;48.400;10.808;2023-05-13T08:34:34;11.30;82.70
38514;DHT22;24282;48.400;10.808;2023-05-13T08:37:00;11.40;82.70
38514;DHT22;24282;48.400;10.808;2023-05-13T08:39:25;11.40;82.50
38514;DHT22;24282;48.400;10.808;2023-05-13T08:41:55;11.40;82.50
38514;DHT22;24282;48.400;10.808;2023-05-13T08:44:21;11.40;82.50
38514;DHT22;24282;48.400;10.808;2023-05-13T08:47:25;11.40;82.50
38514;DHT22;24282;48.400;10.808;2023-05-13T08:49:45;11.40;82.50
38514;DHT22;24282;48.400;10.808;2023-05-13T08:52:11;11.40;82.70
38514;DHT22;24282;48.400;10.808;2023-05-13T08:54:37;11.40;82.70
38514;DHT22;24282;48.400;10.808;2023-05-13T08:57:04;11.40;82.40
38514;DHT22;24282;48.400;10.808;2023-05-13T08:59:31;11.40;82.40
38514;DHT22;24282;48.400;10.808;2023-05-13T09:01:56;11.40;82.30
38514;DHT22;24282;48.400;10.808;2023-05-13T09:04:24;11.40;82.40
38514;DHT22;24282;48.400;10.808;2023-05-13T09:06:50;11.40;82.30
38514;DHT22;24282;48.400;10.808;2023-05-13T09:09:16;11.50;81.90
38514;DHT22;24282;48.400;10.808;2023-05-13T09:11:42;11.50;81.90
38514;DHT22;24282;48.400;10.808;2023-05-13T09:14:11;11.50;82.00
38514;DHT22;24282;48.400;10.808;2023-05-13T09:16:38;11.50;82.00
38514;DHT22;24282;48.400;10.808;2023-05-13T09:19:05;11.60;82.00
38514;DHT22;24282;48.400;10.808;2023-05-13T09:21:33;11.60;82.10
38514;DHT22;24282;48.400;10.808;2023-05-13T09:24:06;11.70;82.00
38514;DHT22;24282;48.400;10.808;2023-05-13T09:26:33;11.70;81.90
38514;DHT22;24282;48.400;10.808;2023-05-13T09:31:58;11.70;82.10
38514;DHT22;24282;48.400;10.808;2023-05-13T09:34:25;11.70;82.10
38514;DHT22;24282;48.400;10.808;2023-05-13T09:39:21;11.70;82.20
38514;DHT22;24282;48.400;10.808;2023-05-13T09:41:47;11.70;82.10
38514;DHT22;24282;48.400;10.808;2023-05-13T09:44:13;11.80;81.80
38514;DHT22;24282;48.400;10.808;2023-05-13T09:46:41;11.70;81.80
38514;DHT22;24282;48.400;10.808;2023-05-13T09:49:09;11.80;81.50
38514;DHT22;24282;48.400;10.808;2023-05-13T09:51:35;11.80;81.90
38514;DHT22;24282;48.400;10.808;2023-05-13T09:54:04;11.80;81.50
38514;DHT22;24282;48.400;10.808;2023-05-13T09:56:33;11.80;81.10
38514;DHT22;24282;48.400;10.808;2023-05-13T09:58:59;11.80;81.20
38514;DHT22;24282;48.400;10.808;2023-05-13T10:01:27;11.90;81.20
38514;DHT22;24282;48.400;10.808;2023-05-13T10:03:57;11.90;81.20
38514;DHT22;24282;48.400;10.808;2023-05-13T10:06:29;11.90;81.30
38514;DHT22;24282;48.400;10.808;2023-05-13T10:08:57;11.90;81.30
38514;DHT22;24282;48.400;10.808;2023-05-13T10:11:23;12.00;81.40
38514;DHT22;24282;48.400;10.808;2023-05-13T10:13:57;12.00;81.40
38514;DHT22;24282;48.400;10.808;2023-05-13T10:16:24;12.00;81.30
38514;DHT22;24282;48.400;10.808;2023-05-13T10:18:50;12.00;81.30
38514;DHT22;24282;48.400;10.808;2023-05-13T10:21:18;12.10;81.40
38514;DHT22;24282;48.400;10.808;2023-05-13T10:23:45;12.20;81.30
38514;DHT22;24282;48.400;10.808;2023-05-13T10:26:12;12.10;81.10
38514;DHT22;24282;48.400;10.808;2023-05-13T10:28:38;12.10;81.20
38514;DHT22;24282;48.400;10.808;2023-05-13T10:31:04;12.10;81.30
38514;DHT22;24282;48.400;10.808;2023-05-13T10:33:30;12.10;81.20
38514;DHT22;24282;48.400;10.808;2023-05-13T10:44:25;12.20;80.60
38514;DHT22;24282;48.400;10.808;2023-05-13T10:46:51;12.20;80.80
38514;DHT22;24282;48.400;10.808;2023-05-13T10:49:21;12.20;80.80
38514;DHT22;24282;48.400;10.808;2023-05-13T10:51:49;12.20;80.80
38514;DHT22;24282;48.400;10.808;2023-05-13T10:54:22;12.20;80.50
38514;DHT22;24282;48.400;10.808;2023-05-13T10:56:58;12.10;80.50
38514;DHT22;24282;48.400;10.808;2023-05-13T10:59:25;12.10;80.40
38514;DHT22;24282;48.400;10.808;2023-05-13T11:01:55;12.10;80.50
38514;DHT22;24282;48.400;10.808;2023-05-13T11:04:21;12.10;80.50
38514;DHT22;24282;48.400;10.808;2023-05-13T11:06:48;12.10;80.30
38514;DHT22;24282;48.400;10.808;2023-05-13T11:09:29;12.10;80.20
38514;DHT22;24282;48.400;10.808;2023-05-13T11:11:58;12.10;80.50
38514;DHT22;24282;48.400;10.808;2023-05-13T11:14:30;12.10;80.70
38514;DHT22;24282;48.400;10.808;2023-05-13T11:19:29;12.20;80.60
38514;DHT22;24282;48.400;10.808;2023-05-13T11:22:09;12.20;80.50
38514;DHT22;24282;48.400;10.808;2023-05-13T11:24:35;12.20;80.00
38514;DHT22;24282;48.400;10.808;2023-05-13T11:27:14;12.20;80.10
38514;DHT22;24282;48.400;10.808;2023-05-13T11:29:51;12.20;80.00
38514;DHT22;24282;48.400;10.808;2023-05-13T11:32:52;12.20;80.20
38514;DHT22;24282;48.400;10.808;2023-05-13T11:37:49;12.10;80.70
38514;DHT22;24282;48.400;10.808;2023-05-13T11:40:33;12.20;80.80
38514;DHT22;24282;48.400;10.808;2023-05-13T11:42:59;12.10;81.10
38514;DHT22;24282;48.400;10.808;2023-05-13T11:45:27;12.10;81.10
38514;DHT22;24282;48.400;10.808;2023-05-13T11:47:53;12.20;80.80
38514;DHT22;24282;48.400;10.808;2023-05-13T11:50:20;12.10;80.50
38514;DHT22;24282;48.400;10.808;2023-05-13T11:52:53;12.10;80.50
38514;DHT22;24282;48.400;10.808;2023-05-13T11:55:33;12.10;80.50
38514;DHT22;24282;48.400;10.808;2023-05-13T11:58:01;12.10;80.60
38514;DHT22;24282;48.400;10.808;2023-05-13T12:00:28;12.10;80.70
38514;DHT22;24282;48.400;10.808;2023-05-13T12:02:55;12.10;80.70
38514;DHT22;24282;48.400;10.808;2023-05-13T12:05:21;12.10;80.70
38514;DHT22;24282;48.400;10.808;2023-05-13T12:07:47;12.10;80.80
38514;DHT22;24282;48.400;10.808;2023-05-13T12:10:13;12.20;80.90
38514;DHT22;24282;48.400;10.808;2023-05-13T12:12:41;12.20;81.00
38514;DHT22;24282;48.400;10.808;2023-05-13T12:17:35;12.30;81.70
38514;DHT22;24282;48.400;10.808;2023-05-13T12:30:33;12.40;82.80
38514;DHT22;24282;48.400;10.808;2023-05-13T12:32:59;12.50;83.00
38514;DHT22;24282;48.400;10.808;2023-05-13T12:35:26;12.50;83.00
38514;DHT22;24282;48.400;10.808;2023-05-13T12:38:03;12.50;82.90
38514;DHT22;24282;48.400;10.808;2023-05-13T12:40:29;12.50;82.50
38514;DHT22;24282;48.400;10.808;2023-05-13T12:43:00;12.50;82.40
38514;DHT22;24282;48.400;10.808;2023-05-13T12:45:30;12.60;82.60
38514;DHT22;24282;48.400;10.808;2023-05-13T12:47:56;12.70;82.50
38514;DHT22;24282;48.400;10.808;2023-05-13T12:50:22;12.70;82.30
38514;DHT22;24282;48.400;10.808;2023-05-13T12:52:48;12.90;82.10
38514;DHT22;24282;48.400;10.808;2023-05-13T12:55:18;12.90;81.60
38514;DHT22;24282;48.400;10.808;2023-05-13T12:57:59;12.90;81.30
38514;DHT22;24282;48.400;10.808;2023-05-13T13:00:26;12.80;81.00
38514;DHT22;24282;48.400;10.808;2023-05-13T13:02:51;12.70;80.90
38514;DHT22;24282;48.400;10.808;2023-05-13T13:05:22;12.70;81.00
38514;DHT22;24282;48.400;10.808;2023-05-13T13:07:48;12.70;81.10
38514;DHT22;24282;48.400;10.808;2023-05-13T13:10:15;12.60;81.00
38514;DHT22;24282;48.400;10.808;2023-05-13T13:12:41;12.60;81.10
38514;DHT22;24282;48.400;10.808;2023-05-13T13:15:08;12.60;81.40
38514;DHT22;24282;48.400;10.808;2023-05-13T13:17:34;12.60;81.40
38514;DHT22;24282;48.400;10.808;2023-05-13T13:20:00;12.70;81.40
38514;DHT22;24282;48.400;10.808;2023-05-13T13:22:26;12.70;81.50
38514;DHT22;24282;48.400;10.808;2023-05-13T13:24:52;12.80;81.50
38514;DHT22;24282;48.400;10.808;2023-05-13T13:27:18;12.90;81.20
38514;DHT22;24282;48.400;10.808;2023-05-13T13:29:44;13.00;80.80
38514;DHT22;24282;48.400;10.808;2023-05-13T13:32:09;13.00;80.60
38514;DHT22;24282;48.400;10.808;2023-05-13T13:34:35;13.10;80.20
38514;DHT22;24282;48.400;10.808;2023-05-13T13:37:02;13.20;79.40
38514;DHT22;24282;48.400;10.808;2023-05-13T13:39:28;13.20;78.80
38514;DHT22;24282;48.400;10.808;2023-05-13T13:41:54;13.30;79.00
38514;DHT22;24282;48.400;10.808;2023-05-13T13:44:19;13.40;78.70
38514;DHT22;24282;48.400;10.808;2023-05-13T13:46:45;13.40;78.40
38514;DHT22;24282;48.400;10.808;2023-05-13T13:49:11;13.40;78.40
38514;DHT22;24282;48.400;10.808;2023-05-13T13:51:37;13.40;78.40
38514;DHT22;24282;48.400;10.808;2023-05-13T13:54:06;13.40;78.50
38514;DHT22;24282;48.400;10.808;2023-05-13T13:56:34;13.40;78.60
38514;DHT22;24282;48.400;10.808;2023-05-13T13:59:00;13.30;78.70
38514;DHT22;24282;48.400;10.808;2023-05-13T14:01:26;13.30;78.90
38514;DHT22;24282;48.400;10.808;2023-05-13T14:03:52;13.30;79.00
38514;DHT22;24282;48.400;10.808;2023-05-13T14:06:33;13.40;79.10
38514;DHT22;24282;48.400;10.808;2023-05-13T14:08:59;13.40;78.20
38514;DHT22;24282;48.400;10.808;2023-05-13T14:11:25;13.40;78.30
38514;DHT22;24282;48.400;10.808;2023-05-13T14:13:50;13.60;78.60
38514;DHT22;24282;48.400;10.808;2023-05-13T14:16:16;13.70;78.50
38514;DHT22;24282;48.400;10.808;2023-05-13T14:18:42;13.90;77.50
38514;DHT22;24282;48.400;10.808;2023-05-13T14:21:08;14.00;76.00
38514;DHT22;24282;48.400;10.808;2023-05-13T14:23:34;14.10;76.00
38514;DHT22;24282;48.400;10.808;2023-05-13T14:26:00;14.30;76.20
38514;DHT22;24282;48.400;10.808;2023-05-13T14:28:25;14.40;76.00
38514;DHT22;24282;48.400;10.808;2023-05-13T14:30:51;14.60;75.10
38514;DHT22;24282;48.400;10.808;2023-05-13T14:33:17;14.60;75.00
38514;DHT22;24282;48.400;10.808;2023-05-13T14:35:43;14.60;75.10
38514;DHT22;24282;48.400;10.808;2023-05-13T14:38:08;14.50;75.40
38514;DHT22;24282;48.400;10.808;2023-05-13T14:40:34;14.50;75.60
38514;DHT22;24282;48.400;10.808;2023-05-13T14:43:00;14.40;76.00
38514;DHT22;24282;48.400;10.808;2023-05-13T14:45:26;14.30;76.40
38514;DHT22;24282;48.400;10.808;2023-05-13T14:47:51;14.20;76.60
38514;DHT22;24282;48.400;10.808;2023-05-13T14:50:21;14.10;76.70
38514;DHT22;24282;48.400;10.808;2023-05-13T14:52:46;14.10;76.70
38514;DHT22;24282;48.400;10.808;2023-05-13T14:55:12;14.00;77.10
38514;DHT22;24282;48.400;10.808;2023-05-13T14:57:38;14.00;77.20
38514;DHT22;24282;48.400;10.808;2023-05-13T15:00:04;13.90;77.60
38514;DHT22;24282;48.400;10.808;2023-05-13T15:02:31;13.90;77.90
38514;DHT22;24282;48.400;10.808;2023-05-13T15:04:57;13.90;77.70
38514;DHT22;24282;48.400;10.808;2023-05-13T15:07:24;13.90;77.20
38514;DHT22;24282;48.400;10.808;2023-05-13T15:09:49;13.90;76.70
38514;DHT22;24282;48.400;10.808;2023-05-13T15:12:15;13.90;76.30
38514;DHT22;24282;48.400;10.808;2023-05-13T15:14:41;13.90;76.20
38514;DHT22;24282;48.400;10.808;2023-05-13T15:17:07;13.90;76.30
38514;DHT22;24282;48.400;10.808;2023-05-13T15:19:37;13.90;76.40
38514;DHT22;24282;48.400;10.808;2023-05-13T15:22:03;13.90;76.60
38514;DHT22;24282;48.400;10.808;2023-05-13T15:24:29;13.90;76.70
38514;DHT22;24282;48.400;10.808;2023-05-13T15:26:55;14.00;76.90
38514;DHT22;24282;48.400;10.808;2023-05-13T15:29:21;14.00;77.10
38514;DHT22;24282;48.400;10.808;2023-05-13T15:31:49;14.00;77.10
38514;DHT22;24282;48.400;10.808;2023-05-13T15:34:15;14.00;77.80
38514;DHT22;24282;48.400;10.808;2023-05-13T15:36:41;14.00;77.30
38514;DHT22;24282;48.400;10.808;2023-05-13T15:39:06;14.00;76.90
38514;DHT22;24282;48.400;10.808;2023-05-13T15:41:32;14.00;76.90
38514;DHT22;24282;48.400;10.808;2023-05-13T15:43:58;14.00;77.30
38514;DHT22;24282;48.400;10.808;2023-05-13T15:46:24;14.10;76.30